Time;durP1;ratioP1;P1;durP2;ratioP2;P2;SDS_P1;SDS_P2;PMS_P1;PMS_P2;Temp;Humidity;BMP_temperature;BMP_pressure;BME280_temperature;BME280_humidity;BME280_pressure;Samples;Min_cycle;Max_cycle;Signal;HPM_P1;HPM_P2
2023/01/21 00:03:37;;;;;;;6.15;2.40;;;;;;;;;;12837362;19;20486;-64
2023/01/21 00:07:55;;;;;;;5.28;2.28;;;;;;;;;;12837069;19;20017;-64
2023/01/21 00:12:14;;;;;;;16.90;4.77;;;;;;;;;;12837273;19;20464;-64
2023/01/21 00:16:31;;;;;;;7.30;2.47;;;;;;;;;;12835907;19;20610;-64
2023/01/21 00:20:48;;;;;;;9.73;2.78;;;;;;;;;;12834054;19;20018;-64
2023/01/21 00:25:06;;;;;;;4.93;2.00;;;;;;;;;;12835525;19;20490;-64
2023/01/21 00:29:25;;;;;;;6.88;2.58;;;;;;;;;;12838479;19;20461;-64
2023/01/21 00:33:42;;;;;;;3.50;1.90;;;;;;;;;;12835661;19;20453;-64
2023/01/21 00:38:00;;;;;;;3.55;2.25;;;;;;;;;;12836196;19;20367;-65
2023/01/21 00:42:18;;;;;;;6.00;3.13;;;;;;;;;;12835100;19;20014;-65
2023/01/21 00:46:35;;;;;;;2.73;1.77;;;;;;;;;;12834180;19;20477;-65
2023/01/21 00:50:55;;;;;;;3.00;1.80;;;;;;;;;;12835796;19;20240;-64
2023/01/21 00:55:12;;;;;;;2.83;1.85;;;;;;;;;;12834145;19;20366;-64
2023/01/21 00:59:29;;;;;;;6.55;3.15;;;;;;;;;;12831835;19;20429;-64
2023/01/21 01:03:48;;;;;;;4.80;2.67;;;;;;;;;;12846852;19;20488;-63
2023/01/21 01:08:06;;;;;;;3.35;2.05;;;;;;;;;;12845109;19;20616;-65
2023/01/21 01:12:24;;;;;;;3.28;1.70;;;;;;;;;;12846724;19;20282;-65
2023/01/21 01:16:41;;;;;;;3.85;2.00;;;;;;;;;;12845226;19;20483;-64
2023/01/21 01:21:00;;;;;;;2.78;1.73;;;;;;;;;;12846541;19;20018;-64
2023/01/21 01:25:18;;;;;;;2.53;1.50;;;;;;;;;;12846328;19;20020;-64
2023/01/21 01:29:36;;;;;;;2.05;1.50;;;;;;;;;;12845225;19;20461;-64
2023/01/21 01:33:55;;;;;;;1.97;1.47;;;;;;;;;;12845572;19;20010;-64
2023/01/21 01:38:14;;;;;;;2.42;1.48;;;;;;;;;;12844595;19;20757;-64
2023/01/21 01:42:32;;;;;;;3.17;1.40;;;;;;;;;;12845468;19;20014;-65
2023/01/21 01:46:50;;;;;;;3.03;1.83;;;;;;;;;;12843166;19;20367;-64
2023/01/21 01:51:08;;;;;;;3.00;1.83;;;;;;;;;;12842233;19;20460;-64
2023/01/21 01:55:32;;;;;;;2.97;1.92;;;;;;;;;;12843762;19;20468;-65
2023/01/21 01:59:50;;;;;;;2.90;1.63;;;;;;;;;;12843963;19;20371;-65
2023/01/21 02:04:15;;;;;;;9.80;4.38;;;;;;;;;;12843322;19;20360;-65
2023/01/21 02:08:35;;;;;;;2.50;1.98;;;;;;;;;;12841855;19;20003;-64
2023/01/21 02:12:53;;;;;;;2.53;1.60;;;;;;;;;;12842052;19;20431;-65
2023/01/21 02:17:38;;;;;;;1.77;1.20;;;;;;;;;;12839965;19;20436;-65
2023/01/21 02:22:03;;;;;;;1.90;1.30;;;;;;;;;;12843719;19;20362;-65
2023/01/21 02:27:00;;;;;;;1.42;1.27;;;;;;;;;;12840821;19;20365;-65
2023/01/21 02:32:00;;;;;;;2.15;1.50;;;;;;;;;;12840432;19;20333;-65
2023/01/21 02:36:42;;;;;;;2.47;1.40;;;;;;;;;;12839952;19;20022;-64
2023/01/21 02:41:17;;;;;;;2.05;1.70;;;;;;;;;;12842413;19;20011;-64
2023/01/21 02:46:11;;;;;;;3.58;1.92;;;;;;;;;;12841584;19;20367;-65
2023/01/21 02:50:37;;;;;;;1.63;1.05;;;;;;;;;;12838386;19;20496;-65
2023/01/21 02:55:00;;;;;;;2.13;1.30;;;;;;;;;;12841058;19;20060;-64
2023/01/21 02:59:18;;;;;;;4.50;1.77;;;;;;;;;;12840301;19;20361;-64
2023/01/21 03:03:39;;;;;;;2.47;1.90;;;;;;;;;;12839094;19;20778;-64
2023/01/21 03:08:16;;;;;;;1.58;1.05;;;;;;;;;;12840430;19;20322;-64
2023/01/21 03:12:49;;;;;;;2.07;1.50;;;;;;;;;;12839995;19;20745;-65
2023/01/21 03:17:36;;;;;;;2.03;1.33;;;;;;;;;;12837129;19;20382;-64
2023/01/21 03:21:57;;;;;;;1.27;1.08;;;;;;;;;;12840082;19;20492;-65
2023/01/21 03:26:21;;;;;;;10.90;4.00;;;;;;;;;;12834206;19;20059;-64
2023/01/21 03:30:42;;;;;;;5.90;2.88;;;;;;;;;;12837232;19;20508;-64
2023/01/21 03:35:02;;;;;;;3.90;1.98;;;;;;;;;;12837709;19;20082;-64
2023/01/21 03:39:56;;;;;;;2.58;1.55;;;;;;;;;;12835657;19;20086;-64
2023/01/21 03:44:13;;;;;;;1.45;1.20;;;;;;;;;;12837217;19;20383;-64
2023/01/21 03:49:00;;;;;;;1.45;1.23;;;;;;;;;;12837955;19;20056;-65
2023/01/21 03:53:18;;;;;;;2.63;1.55;;;;;;;;;;12835723;19;20373;-64
2023/01/21 03:57:36;;;;;;;1.20;0.90;;;;;;;;;;12836666;19;20465;-65
2023/01/21 04:01:54;;;;;;;2.55;1.27;;;;;;;;;;12838305;19;20379;-65
2023/01/21 04:06:15;;;;;;;1.33;1.17;;;;;;;;;;12836379;19;20003;-65
2023/01/21 04:10:32;;;;;;;2.03;1.50;;;;;;;;;;12839692;19;20407;-65
2023/01/21 04:14:50;;;;;;;2.22;1.58;;;;;;;;;;12836631;19;20439;-64
2023/01/21 04:19:08;;;;;;;18.57;6.77;;;;;;;;;;12835835;19;20069;-64
2023/01/21 04:23:25;;;;;;;15.20;3.92;;;;;;;;;;12836463;19;20087;-66
2023/01/21 04:27:43;;;;;;;39.53;9.70;;;;;;;;;;12838808;19;20350;-64
2023/01/21 04:32:00;;;;;;;13.18;4.82;;;;;;;;;;12836640;19;20513;-64
2023/01/21 04:36:18;;;;;;;44.72;16.80;;;;;;;;;;12837009;19;20018;-65
2023/01/21 04:40:35;;;;;;;16.13;6.90;;;;;;;;;;12847884;19;20434;-64
2023/01/21 04:44:53;;;;;;;11.90;4.50;;;;;;;;;;12846941;19;20018;-64
2023/01/21 04:49:11;;;;;;;12.85;4.05;;;;;;;;;;12847398;19;20447;-66
2023/01/21 04:53:28;;;;;;;8.90;3.42;;;;;;;;;;12847671;19;20500;-64
2023/01/21 04:57:46;;;;;;;11.40;4.70;;;;;;;;;;12850924;19;20497;-65
2023/01/21 05:02:04;;;;;;;8.50;3.28;;;;;;;;;;12847634;19;20432;-65
2023/01/21 05:06:21;;;;;;;4.28;2.08;;;;;;;;;;12846649;19;20492;-65
2023/01/21 05:10:39;;;;;;;6.00;2.83;;;;;;;;;;12849494;19;20359;-65
2023/01/21 05:14:57;;;;;;;5.00;2.53;;;;;;;;;;12847973;19;20497;-64
2023/01/21 05:19:15;;;;;;;3.95;2.33;;;;;;;;;;12845502;19;20074;-65
2023/01/21 05:23:32;;;;;;;3.33;1.95;;;;;;;;;;12846921;19;20481;-65
2023/01/21 05:27:52;;;;;;;2.83;2.05;;;;;;;;;;12846899;19;20362;-65
2023/01/21 05:32:10;;;;;;;2.33;1.67;;;;;;;;;;12844396;19;20501;-64
2023/01/21 05:36:27;;;;;;;2.17;1.77;;;;;;;;;;12845422;19;20316;-64
2023/01/21 05:40:45;;;;;;;3.28;2.20;;;;;;;;;;12845824;19;20464;-65
2023/01/21 05:45:03;;;;;;;10.23;6.87;;;;;;;;;;12844826;19;20556;-64
2023/01/21 05:49:20;;;;;;;7.63;4.28;;;;;;;;;;12842742;19;20610;-65
2023/01/21 05:53:38;;;;;;;8.43;4.10;;;;;;;;;;12843050;19;20399;-64
2023/01/21 05:57:56;;;;;;;10.35;5.03;;;;;;;;;;12843767;19;20362;-64
2023/01/21 06:02:13;;;;;;;5.63;3.50;;;;;;;;;;12844640;19;20163;-65
2023/01/21 06:06:31;;;;;;;19.65;10.02;;;;;;;;;;12843570;19;20299;-65
2023/01/21 06:10:49;;;;;;;5.70;3.75;;;;;;;;;;12843141;19;20382;-64
2023/01/21 06:15:07;;;;;;;7.23;4.40;;;;;;;;;;12844674;19;20512;-64
2023/01/21 06:19:24;;;;;;;10.45;5.55;;;;;;;;;;12842021;19;20552;-64
2023/01/21 06:23:42;;;;;;;7.47;3.80;;;;;;;;;;12842312;19;20499;-64
2023/01/21 06:28:00;;;;;;;6.32;2.60;;;;;;;;;;12843338;19;20019;-65
2023/01/21 06:32:17;;;;;;;5.33;3.47;;;;;;;;;;12842532;19;20476;-64
2023/01/21 06:36:35;;;;;;;4.70;2.53;;;;;;;;;;12841457;19;20255;-64
2023/01/21 06:40:52;;;;;;;3.60;2.00;;;;;;;;;;12842030;19;20007;-64
2023/01/21 06:45:10;;;;;;;4.45;2.42;;;;;;;;;;12841194;19;20036;-65
2023/01/21 06:49:28;;;;;;;6.45;2.83;;;;;;;;;;12841275;19;20428;-64
2023/01/21 06:53:45;;;;;;;6.32;3.28;;;;;;;;;;12841304;19;20525;-68
2023/01/21 06:58:03;;;;;;;17.73;6.77;;;;;;;;;;12840214;19;20453;-65
2023/01/21 07:02:20;;;;;;;9.93;4.15;;;;;;;;;;12840320;19;20075;-64
2023/01/21 07:06:38;;;;;;;3.10;2.03;;;;;;;;;;12839349;19;20437;-64
2023/01/21 07:10:56;;;;;;;6.65;4.00;;;;;;;;;;12840927;19;20808;-65
2023/01/21 07:15:13;;;;;;;10.73;4.73;;;;;;;;;;12840506;19;20485;-65
2023/01/21 07:19:32;;;;;;;7.97;4.93;;;;;;;;;;12839371;19;20611;-65
2023/01/21 07:23:54;;;;;;;3.60;2.60;;;;;;;;;;12838483;19;20463;-64
2023/01/21 07:28:11;;;;;;;3.22;2.38;;;;;;;;;;12836903;19;20309;-64
2023/01/21 07:32:29;;;;;;;3.85;2.20;;;;;;;;;;12838725;19;20294;-64
2023/01/21 07:36:46;;;;;;;5.05;2.08;;;;;;;;;;12838808;19;20033;-64
2023/01/21 07:41:04;;;;;;;3.83;2.90;;;;;;;;;;12838267;19;20473;-64
2023/01/21 07:45:23;;;;;;;2.03;1.73;;;;;;;;;;12838274;19;20342;-65
2023/01/21 07:49:40;;;;;;;2.40;1.80;;;;;;;;;;12837980;19;20477;-64
2023/01/21 07:53:58;;;;;;;2.85;1.70;;;;;;;;;;12839593;19;20380;-64
2023/01/21 07:58:16;;;;;;;6.20;3.55;;;;;;;;;;12836655;19;20468;-65
2023/01/21 08:02:33;;;;;;;14.75;6.72;;;;;;;;;;12834684;19;20301;-65
2023/01/21 08:06:55;;;;;;;3.78;2.03;;;;;;;;;;12837346;19;20432;-65
2023/01/21 08:11:13;;;;;;;2.40;1.70;;;;;;;;;;12833437;19;20429;-65
2023/01/21 08:15:30;;;;;;;4.13;2.90;;;;;;;;;;12836394;19;20448;-64
2023/01/21 08:19:48;;;;;;;3.05;1.80;;;;;;;;;;12836160;19;20334;-65
2023/01/21 08:24:06;;;;;;;2.80;1.63;;;;;;;;;;12836118;19;20493;-65
2023/01/21 08:28:23;;;;;;;4.97;3.25;;;;;;;;;;12836093;19;20389;-65
2023/01/21 08:32:41;;;;;;;7.40;4.28;;;;;;;;;;12836241;19;20468;-65
2023/01/21 08:36:59;;;;;;;3.15;2.72;;;;;;;;;;12836810;19;20027;-65
2023/01/21 08:41:16;;;;;;;4.13;2.65;;;;;;;;;;12836541;19;20507;-65
2023/01/21 08:45:34;;;;;;;2.13;1.70;;;;;;;;;;12834384;19;20562;-65
2023/01/21 08:49:51;;;;;;;3.40;2.47;;;;;;;;;;12834437;19;20366;-64
2023/01/21 08:54:09;;;;;;;5.53;3.13;;;;;;;;;;12833001;19;20372;-65
2023/01/21 08:58:29;;;;;;;5.43;2.40;;;;;;;;;;12834667;19;20469;-65
2023/01/21 09:02:47;;;;;;;6.45;4.05;;;;;;;;;;12832956;19;20464;-65
2023/01/21 09:07:07;;;;;;;2.70;1.90;;;;;;;;;;12833877;19;20326;-65
2023/01/21 09:11:28;;;;;;;17.67;9.05;;;;;;;;;;12833705;19;20006;-65
2023/01/21 09:15:45;;;;;;;5.03;3.05;;;;;;;;;;12834054;19;20381;-65
2023/01/21 09:20:04;;;;;;;9.05;5.75;;;;;;;;;;12832662;19;20477;-65
2023/01/21 09:24:22;;;;;;;;;;;;;;;;;;12841104;19;20038;-65
2023/01/21 09:28:42;;;;;;;10.77;4.80;;;;;;;;;;12845647;19;20234;-66
2023/01/21 09:33:00;;;;;;;9.25;4.43;;;;;;;;;;12846209;19;20466;-65
2023/01/21 09:37:17;;;;;;;4.50;2.93;;;;;;;;;;12846208;19;20457;-65
2023/01/21 09:41:49;;;;;;;8.75;5.60;;;;;;;;;;12844843;19;20750;-65
2023/01/21 09:46:31;;;;;;;14.00;6.40;;;;;;;;;;12842053;19;20415;-65
2023/01/21 09:50:50;;;;;;;6.30;3.13;;;;;;;;;;12844774;19;20011;-65
2023/01/21 09:55:45;;;;;;;6.25;2.63;;;;;;;;;;12843814;19;20432;-65
2023/01/21 10:00:16;;;;;;;8.88;3.55;;;;;;;;;;12843851;19;20441;-66
2023/01/21 10:04:46;;;;;;;13.00;5.20;;;;;;;;;;12842114;19;20360;-65
2023/01/21 10:09:44;;;;;;;13.30;4.65;;;;;;;;;;12841834;19;20103;-65
2023/01/21 10:14:43;;;;;;;5.07;2.15;;;;;;;;;;12840471;19;20011;-65
2023/01/21 10:19:03;;;;;;;7.18;3.15;;;;;;;;;;12843225;19;20589;-65
2023/01/21 10:23:48;;;;;;;16.58;5.60;;;;;;;;;;12842103;19;20488;-65
2023/01/21 10:28:29;;;;;;;5.22;3.10;;;;;;;;;;12840429;19;20346;-66
2023/01/21 10:32:50;;;;;;;3.55;2.28;;;;;;;;;;12840430;19;20042;-65
2023/01/21 10:37:44;;;;;;;7.85;3.03;;;;;;;;;;12841212;19;20433;-66
2023/01/21 10:42:30;;;;;;;15.07;6.45;;;;;;;;;;12841202;19;20374;-65
2023/01/21 10:47:04;;;;;;;38.50;15.32;;;;;;;;;;12842320;19;20469;-65
2023/01/21 10:52:17;;;;;;;18.10;9.57;;;;;;;;;;12841432;19;20081;-66
2023/01/21 10:56:58;;;;;;;5.15;3.35;;;;;;;;;;12838153;19;20371;-65
2023/01/21 11:01:33;;;;;;;7.28;4.22;;;;;;;;;;12843400;19;20470;-65
2023/01/21 11:05:51;;;;;;;11.05;4.97;;;;;;;;;;12841335;19;20488;-65
2023/01/21 11:10:21;;;;;;;33.28;13.55;;;;;;;;;;12841495;19;20376;-66
2023/01/21 11:14:38;;;;;;;15.23;7.60;;;;;;;;;;12840612;19;20465;-65
2023/01/21 11:18:56;;;;;;;45.05;12.73;;;;;;;;;;12840936;19;20464;-65
2023/01/21 11:23:53;;;;;;;22.38;8.25;;;;;;;;;;12836064;19;20475;-66
2023/01/21 11:28:25;;;;;;;8.93;5.10;;;;;;;;;;12836781;19;20485;-66
2023/01/21 11:32:43;;;;;;;8.45;4.05;;;;;;;;;;12836512;19;20473;-66
2023/01/21 11:37:06;;;;;;;11.63;4.18;;;;;;;;;;12837252;19;20418;-66
2023/01/21 11:41:24;;;;;;;22.25;9.38;;;;;;;;;;12836553;19;20367;-66
2023/01/21 11:45:42;;;;;;;14.25;5.75;;;;;;;;;;12835668;19;20058;-66
2023/01/21 11:50:14;;;;;;;15.48;5.55;;;;;;;;;;12840926;19;20353;-66
2023/01/21 11:54:38;;;;;;;25.70;9.93;;;;;;;;;;12838669;19;20010;-67
2023/01/21 11:58:56;;;;;;;18.98;7.07;;;;;;;;;;12689070;19;20733;-66
2023/01/21 12:03:17;;;;;;;33.35;10.00;;;;;;;;;;12776873;19;20298;-66
2023/01/21 12:07:39;;;;;;;14.38;7.22;;;;;;;;;;12835050;19;20473;-65
2023/01/21 12:12:25;;;;;;;24.95;10.38;;;;;;;;;;12835684;19;20515;-68
2023/01/21 12:16:59;;;;;;;60.30;29.00;;;;;;;;;;12837093;19;20501;-66
2023/01/21 12:21:42;;;;;;;60.15;14.98;;;;;;;;;;12836552;19;20334;-67
2023/01/21 12:26:13;;;;;;;45.00;11.63;;;;;;;;;;12834835;19;20014;-66
2023/01/21 12:30:52;;;;;;;29.32;11.55;;;;;;;;;;9943438;19;10023045;-66
2023/01/21 12:35:34;;;;;;;12.75;6.55;;;;;;;;;;11421658;19;10000931;-66
2023/01/21 12:39:55;;;;;;;27.85;11.65;;;;;;;;;;12834873;19;20056;-66
2023/01/21 12:44:12;;;;;;;19.58;9.02;;;;;;;;;;12835153;19;20306;-67
2023/01/21 12:49:11;;;;;;;11.83;6.53;;;;;;;;;;12836042;19;20485;-67
2023/01/21 12:53:43;;;;;;;13.85;7.70;;;;;;;;;;12833080;19;20423;-66
2023/01/21 12:58:13;;;;;;;13.85;7.63;;;;;;;;;;12839113;19;20472;-66
2023/01/21 13:03:09;;;;;;;10.02;6.32;;;;;;;;;;12847574;19;20372;-66
2023/01/21 13:07:52;;;;;;;8.65;5.30;;;;;;;;;;12847926;19;20287;-67
2023/01/21 13:12:19;;;;;;;14.77;7.55;;;;;;;;;;12844545;19;20499;-67
2023/01/21 13:16:51;;;;;;;10.73;6.30;;;;;;;;;;12847829;19;20336;-67
2023/01/21 13:21:33;;;;;;;7.57;5.20;;;;;;;;;;12844125;19;20011;-66
2023/01/21 13:26:03;;;;;;;6.20;3.78;;;;;;;;;;12846243;19;20109;-66
2023/01/21 13:31:00;;;;;;;8.75;4.72;;;;;;;;;;12845453;19;20114;-67
2023/01/21 13:35:30;;;;;;;21.38;11.95;;;;;;;;;;12844935;19;20335;-66
2023/01/21 13:40:11;;;;;;;30.80;16.73;;;;;;;;;;12844861;19;20433;-66
2023/01/21 13:45:04;;;;;;;21.08;12.02;;;;;;;;;;12843898;19;20018;-66
2023/01/21 13:49:58;;;;;;;29.95;16.50;;;;;;;;;;12844933;19;20413;-67
2023/01/21 13:54:37;;;;;;;22.90;11.80;;;;;;;;;;12844390;19;20025;-66
2023/01/21 13:59:12;;;;;;;31.05;19.02;;;;;;;;;;12842178;19;20027;-66
2023/01/21 14:04:00;;;;;;;74.13;38.30;;;;;;;;;;12844302;19;20348;-66
2023/01/21 14:08:42;;;;;;;48.65;21.10;;;;;;;;;;12841780;19;20011;-66
2023/01/21 14:13:05;;;;;;;25.92;12.18;;;;;;;;;;12842645;19;20007;-66
2023/01/21 14:18:02;;;;;;;16.85;8.05;;;;;;;;;;12843101;19;20369;-66
2023/01/21 14:23:09;;;;;;;14.25;7.38;;;;;;;;;;12843504;19;20389;-66
2023/01/21 14:27:55;;;;;;;14.70;7.57;;;;;;;;;;12843573;19;20748;-65
2023/01/21 14:32:38;;;;;;;15.05;6.72;;;;;;;;;;12842443;19;20504;-66
2023/01/21 14:37:05;;;;;;;11.63;5.88;;;;;;;;;;12841583;19;20018;-66
2023/01/21 14:41:22;;;;;;;12.65;6.32;;;;;;;;;;12842584;19;20814;-66
2023/01/21 14:45:54;;;;;;;18.38;9.50;;;;;;;;;;12840721;19;20393;-66
2023/01/21 14:50:50;;;;;;;18.40;10.18;;;;;;;;;;12840714;19;20043;-66
2023/01/21 14:55:30;;;;;;;8.13;5.47;;;;;;;;;;12839379;19;20333;-65
2023/01/21 14:59:49;;;;;;;9.27;5.72;;;;;;;;;;12841709;19;20473;-66
2023/01/21 15:04:23;;;;;;;9.85;6.35;;;;;;;;;;12840501;19;20357;-66
2023/01/21 15:08:45;;;;;;;17.35;8.02;;;;;;;;;;12838798;19;20337;-66
2023/01/21 15:13:24;;;;;;;42.22;17.75;;;;;;;;;;12839906;19;20481;-66
2023/01/21 15:18:19;;;;;;;35.05;16.58;;;;;;;;;;12838563;19;20492;-66
2023/01/21 15:22:40;;;;;;;22.75;12.57;;;;;;;;;;12839870;19;20452;-66
2023/01/21 15:27:24;;;;;;;19.05;11.10;;;;;;;;;;12842782;19;20473;-66
2023/01/21 15:31:43;;;;;;;16.85;10.63;;;;;;;;;;12838579;19;20510;-67
2023/01/21 15:36:02;;;;;;;14.63;9.20;;;;;;;;;;12839461;19;20396;-66
2023/01/21 15:40:51;;;;;;;18.55;11.10;;;;;;;;;;12836356;19;20011;-67
2023/01/21 15:45:40;;;;;;;16.63;9.18;;;;;;;;;;12836827;19;20382;-66
2023/01/21 15:50:19;;;;;;;17.15;9.35;;;;;;;;;;12836940;19;20390;-66
2023/01/21 15:55:07;;;;;;;13.88;7.85;;;;;;;;;;12837495;19;20342;-66
2023/01/21 15:59:44;;;;;;;13.40;8.20;;;;;;;;;;12837237;19;20509;-66
2023/01/21 16:04:18;;;;;;;14.45;9.18;;;;;;;;;;12835025;19;20345;-66
2023/01/21 16:09:01;;;;;;;14.55;7.75;;;;;;;;;;12836436;19;20469;-66
2023/01/21 16:13:42;;;;;;;8.98;5.38;;;;;;;;;;12837349;19;20432;-66
2023/01/21 16:18:45;;;;;;;8.63;5.43;;;;;;;;;;12835929;19;20489;-67
2023/01/21 16:23:06;;;;;;;10.50;6.47;;;;;;;;;;12832337;19;20116;-66
2023/01/21 16:27:27;;;;;;;10.00;6.82;;;;;;;;;;12835689;19;20397;-67
2023/01/21 16:31:58;;;;;;;13.48;8.10;;;;;;;;;;12837306;19;20021;-66
2023/01/21 16:36:20;;;;;;;15.70;8.70;;;;;;;;;;12848264;19;20473;-66
2023/01/21 16:40:37;;;;;;;13.85;7.97;;;;;;;;;;12845480;19;20334;-67
2023/01/21 16:44:57;;;;;;;15.20;9.13;;;;;;;;;;12847722;19;20279;-66
2023/01/21 16:49:16;;;;;;;14.93;10.13;;;;;;;;;;12841939;19;20019;-67
2023/01/21 16:53:34;;;;;;;19.63;10.75;;;;;;;;;;12846475;19;20379;-66
2023/01/21 16:57:55;;;;;;;16.70;9.43;;;;;;;;;;12847429;19;20574;-65
2023/01/21 17:02:32;;;;;;;130.48;34.72;;;;;;;;;;12845452;19;20006;-66
2023/01/21 17:06:52;;;;;;;65.30;21.83;;;;;;;;;;12847791;19;20297;-67
2023/01/21 17:11:10;;;;;;;38.60;18.42;;;;;;;;;;12844680;19;20400;-66
2023/01/21 17:15:47;;;;;;;65.43;24.48;;;;;;;;;;12844890;19;20417;-67
2023/01/21 17:20:06;;;;;;;60.80;21.52;;;;;;;;;;12844235;19;20563;-66
2023/01/21 17:24:35;;;;;;;;;;;;;;;;;;12847648;19;20067;-66
2023/01/21 17:29:25;;;;;;;50.08;22.80;;;;;;;;;;12846813;19;19923;-66
2023/01/21 17:33:42;;;;;;;59.27;25.27;;;;;;;;;;12846070;19;20487;-67
2023/01/21 17:38:03;;;;;;;41.92;20.10;;;;;;;;;;12845966;19;20379;-67
2023/01/21 17:42:29;;;;;;;21.15;10.68;;;;;;;;;;12844114;19;23534;-67
2023/01/21 17:46:52;;;;;;;24.10;12.75;;;;;;;;;;12844113;19;20456;-66
2023/01/21 17:51:18;;;;;;;26.88;14.80;;;;;;;;;;12843047;19;20475;-66
2023/01/21 17:55:39;;;;;;;17.15;8.35;;;;;;;;;;12845884;19;20456;-67
2023/01/21 17:59:57;;;;;;;14.50;7.72;;;;;;;;;;12843033;19;20045;-67
2023/01/21 18:04:14;;;;;;;13.63;8.15;;;;;;;;;;12842954;19;20368;-67
2023/01/21 18:08:32;;;;;;;15.90;8.20;;;;;;;;;;12844371;19;20453;-66
2023/01/21 18:12:51;;;;;;;17.63;10.63;;;;;;;;;;12844646;19;20322;-67
2023/01/21 18:17:19;;;;;;;15.93;10.13;;;;;;;;;;12843188;19;20497;-66
2023/01/21 18:21:37;;;;;;;25.27;14.35;;;;;;;;;;12842970;19;20362;-66
2023/01/21 18:25:55;;;;;;;33.70;17.65;;;;;;;;;;12843760;19;20464;-65
2023/01/21 18:30:17;;;;;;;29.48;14.85;;;;;;;;;;12840500;19;20025;-66
2023/01/21 18:34:35;;;;;;;23.20;12.15;;;;;;;;;;12840059;19;20388;-66
2023/01/21 18:38:53;;;;;;;21.58;12.00;;;;;;;;;;12842194;19;20483;-66
2023/01/21 18:43:11;;;;;;;21.10;11.38;;;;;;;;;;12840724;19;20366;-67
2023/01/21 18:47:29;;;;;;;18.40;11.50;;;;;;;;;;12841680;19;20672;-66
2023/01/21 18:51:47;;;;;;;19.73;10.93;;;;;;;;;;12841401;19;20255;-66
2023/01/21 18:56:10;;;;;;;21.67;12.05;;;;;;;;;;12837498;19;20342;-66
2023/01/21 19:00:31;;;;;;;22.38;11.65;;;;;;;;;;12838583;19;20452;-66
2023/01/21 19:04:51;;;;;;;27.60;13.38;;;;;;;;;;12840650;19;20357;-67
2023/01/21 19:09:22;;;;;;;21.15;11.50;;;;;;;;;;12839514;19;20477;-67
2023/01/21 19:13:40;;;;;;;24.45;13.63;;;;;;;;;;12838262;19;20015;-66
2023/01/21 19:17:58;;;;;;;18.02;12.73;;;;;;;;;;12841004;19;20602;-66
2023/01/21 19:22:16;;;;;;;25.42;14.63;;;;;;;;;;12839574;19;20468;-67
2023/01/21 19:26:36;;;;;;;27.38;15.15;;;;;;;;;;12839228;19;20433;-66
2023/01/21 19:30:54;;;;;;;44.33;24.60;;;;;;;;;;12839896;19;20441;-66
2023/01/21 19:35:17;;;;;;;57.30;29.42;;;;;;;;;;12838882;19;20299;-66
2023/01/21 19:39:35;;;;;;;57.70;27.20;;;;;;;;;;12838548;19;20513;-66
2023/01/21 19:43:52;;;;;;;61.10;27.87;;;;;;;;;;12838807;19;20071;-66
2023/01/21 19:48:13;;;;;;;48.45;25.63;;;;;;;;;;12837538;19;20779;-66
2023/01/21 19:52:36;;;;;;;63.22;29.52;;;;;;;;;;12837924;19;20014;-66
2023/01/21 19:56:54;;;;;;;56.33;31.98;;;;;;;;;;12836881;19;20425;-66
2023/01/21 20:01:12;;;;;;;63.22;30.20;;;;;;;;;;12835193;19;20517;-67
2023/01/21 20:05:34;;;;;;;58.85;29.77;;;;;;;;;;12836925;19;20348;-66
2023/01/21 20:09:51;;;;;;;58.13;32.67;;;;;;;;;;12836796;19;20468;-66
2023/01/21 20:14:10;;;;;;;53.15;28.20;;;;;;;;;;12836088;19;20472;-66
2023/01/21 20:18:29;;;;;;;53.95;27.92;;;;;;;;;;12836715;19;20440;-67
2023/01/21 20:22:47;;;;;;;141.77;46.60;;;;;;;;;;12836745;19;20355;-66
2023/01/21 20:27:05;;;;;;;131.50;37.72;;;;;;;;;;12836638;19;20457;-67
2023/01/21 20:31:28;;;;;;;50.95;24.95;;;;;;;;;;12836642;19;20601;-67
2023/01/21 20:35:52;;;;;;;44.47;23.85;;;;;;;;;;12836407;19;20460;-65
2023/01/21 20:40:27;;;;;;;40.65;21.77;;;;;;;;;;12835901;19;20493;-67
2023/01/21 20:44:45;;;;;;;35.85;18.95;;;;;;;;;;12834251;19;20464;-66
2023/01/21 20:49:03;;;;;;;58.03;26.67;;;;;;;;;;12834250;19;20425;-66
2023/01/21 20:53:20;;;;;;;49.55;24.58;;;;;;;;;;12834679;19;20485;-66
2023/01/21 20:57:38;;;;;;;47.70;23.00;;;;;;;;;;12834638;19;20478;-67
2023/01/21 21:01:56;;;;;;;;;;;;;;;;;;12836480;19;20367;-66
2023/01/21 21:06:20;;;;;;;33.92;17.50;;;;;;;;;;12834676;19;20339;-66
2023/01/21 21:10:38;;;;;;;370.38;117.88;;;;;;;;;;12836626;19;20503;-66
2023/01/21 21:14:55;;;;;;;277.65;93.63;;;;;;;;;;12835003;19;20489;-67
2023/01/21 21:19:13;;;;;;;725.70;295.30;;;;;;;;;;12839298;19;20298;-66
2023/01/21 21:23:31;;;;;;;557.85;210.63;;;;;;;;;;12846525;19;20535;-65
2023/01/21 21:27:49;;;;;;;459.77;150.82;;;;;;;;;;12846446;19;20011;-66
2023/01/21 21:32:12;;;;;;;49.00;22.13;;;;;;;;;;12845807;19;20473;-67
2023/01/21 21:36:30;;;;;;;45.65;22.20;;;;;;;;;;12844384;19;20448;-66
2023/01/21 21:40:51;;;;;;;323.85;101.63;;;;;;;;;;12847502;19;20498;-65
2023/01/21 21:45:09;;;;;;;47.72;23.65;;;;;;;;;;12845837;19;20347;-67
2023/01/21 21:49:28;;;;;;;51.03;26.05;;;;;;;;;;12844359;19;20453;-66
2023/01/21 21:53:45;;;;;;;28.65;16.05;;;;;;;;;;12843188;19;20022;-65
2023/01/21 22:03:57;;;;;;;25.13;12.55;;;;;;;;;;12844873;19;20552;-66
2023/01/21 22:08:15;;;;;;;28.20;12.90;;;;;;;;;;12843329;19;20434;-66
2023/01/21 22:12:32;;;;;;;;;;;;;;;;;;12844428;19;20351;-66
2023/01/21 22:16:50;;;;;;;44.07;17.13;;;;;;;;;;12842559;19;20613;-65
2023/01/21 22:21:17;;;;;;;;;;;;;;;;;;12840624;19;20284;-66
2023/01/21 22:25:34;;;;;;;48.80;24.13;;;;;;;;;;12843419;19;20330;-67
2023/01/21 22:29:52;;;;;;;33.47;17.17;;;;;;;;;;12841944;19;20032;-66
2023/01/21 22:34:10;;;;;;;180.85;46.20;;;;;;;;;;12841787;19;20433;-66
2023/01/21 22:38:28;;;;;;;81.43;28.02;;;;;;;;;;12841985;19;20567;-66
2023/01/21 22:42:45;;;;;;;49.28;20.45;;;;;;;;;;12842767;19;20450;-66
2023/01/21 22:47:03;;;;;;;43.67;19.95;;;;;;;;;;12842507;19;20384;-66
2023/01/21 22:51:22;;;;;;;49.70;20.65;;;;;;;;;;12841312;19;20426;-66
2023/01/21 22:55:40;;;;;;;48.85;22.40;;;;;;;;;;12840635;19;20006;-66
2023/01/21 22:59:57;;;;;;;146.43;40.97;;;;;;;;;;12842248;19;20363;-66
2023/01/21 23:04:22;;;;;;;144.05;39.72;;;;;;;;;;12839990;19;20840;-65
2023/01/21 23:08:39;;;;;;;76.97;29.05;;;;;;;;;;12840606;19;20379;-65
2023/01/21 23:12:57;;;;;;;45.90;18.45;;;;;;;;;;12841279;19;20382;-66
2023/01/21 23:17:17;;;;;;;71.85;25.13;;;;;;;;;;12840745;19;20023;-65
2023/01/21 23:21:37;;;;;;;38.15;18.58;;;;;;;;;;12838790;19;20034;-67
2023/01/21 23:25:55;;;;;;;65.60;25.73;;;;;;;;;;12839811;19;20467;-66
2023/01/21 23:30:13;;;;;;;31.05;14.95;;;;;;;;;;12840386;19;20018;-67
2023/01/21 23:34:31;;;;;;;27.90;14.95;;;;;;;;;;12838621;19;20010;-66
2023/01/21 23:38:49;;;;;;;32.50;16.00;;;;;;;;;;12838583;19;20347;-67
2023/01/21 23:43:07;;;;;;;45.08;18.65;;;;;;;;;;12833778;19;20359;-66
2023/01/21 23:47:24;;;;;;;43.28;17.77;;;;;;;;;;12839535;19;20457;-66
2023/01/21 23:51:42;;;;;;;107.65;33.55;;;;;;;;;;12838941;19;20388;-66
2023/01/21 23:56:24;;;;;;;125.97;37.20;;;;;;;;;;12838530;19;20465;-66
